EZY224 EGKK-EGGD
Flight info
| Callsign | EZY224 |
|---|---|
| Flight time | 0h 28m |
| Altitude | 18000 |
| Route | KENET DCT SAWPE |
| Aircraft | A320/M-SDE3FGHIRWY/LB1 |
Departure
| Time | 2026-05-04 10:37 |
|---|---|
| Airport | London Gatwick Airport (EGKK) |
Arrival
| Time | 2026-05-04 11:06 |
|---|---|
| Airport | Bristol Airport (EGGD) |
| Time | Latitude | Longitude | Altitude | Speed | Heading |
|---|---|---|---|---|---|
| 2026-05-04 10:08 | 51.15402 | -0.17939 | 206 ft | 0 kts | 167° |
| 2026-05-04 10:22 | 51.15410 | -0.17942 | 215 ft | 4 kts | 168° |
| 2026-05-04 10:23 | 51.15437 | -0.17950 | 213 ft | 4 kts | 174° |
| 2026-05-04 10:23 | 51.15463 | -0.17950 | 216 ft | 4 kts | 193° |
| 2026-05-04 10:25 | 51.15483 | -0.17929 | 216 ft | 0 kts | 257° |
| 2026-05-04 10:27 | 51.15482 | -0.17935 | 210 ft | 3 kts | 257° |
| 2026-05-04 10:27 | 51.15473 | -0.18004 | 216 ft | 7 kts | 257° |
| 2026-05-04 10:27 | 51.15461 | -0.18085 | 211 ft | 9 kts | 257° |
| 2026-05-04 10:27 | 51.15444 | -0.18208 | 214 ft | 12 kts | 257° |
| 2026-05-04 10:28 | 51.15396 | -0.18278 | 209 ft | 10 kts | 175° |
| 2026-05-04 10:28 | 51.15334 | -0.18258 | 205 ft | 10 kts | 167° |
| 2026-05-04 10:28 | 51.15249 | -0.18227 | 209 ft | 13 kts | 167° |
| 2026-05-04 10:28 | 51.15187 | -0.18289 | 216 ft | 12 kts | 255° |
| 2026-05-04 10:29 | 51.15165 | -0.18468 | 208 ft | 21 kts | 258° |
| 2026-05-04 10:29 | 51.15129 | -0.18740 | 215 ft | 29 kts | 257° |
| 2026-05-04 10:29 | 51.15084 | -0.19068 | 210 ft | 31 kts | 258° |
| 2026-05-04 10:29 | 51.15039 | -0.19401 | 209 ft | 32 kts | 258° |
| 2026-05-04 10:30 | 51.14991 | -0.19747 | 204 ft | 32 kts | 257° |
| 2026-05-04 10:30 | 51.14956 | -0.20005 | 214 ft | 20 kts | 257° |
| 2026-05-04 10:30 | 51.14925 | -0.20225 | 211 ft | 21 kts | 258° |
| 2026-05-04 10:30 | 51.14893 | -0.20457 | 206 ft | 22 kts | 257° |
| 2026-05-04 10:31 | 51.14859 | -0.20706 | 202 ft | 24 kts | 257° |
| 2026-05-04 10:31 | 51.14836 | -0.20875 | 205 ft | 7 kts | 258° |
| 2026-05-04 10:32 | 51.14775 | -0.21265 | 207 ft | 9 kts | 252° |
| 2026-05-04 10:33 | 51.14748 | -0.21386 | 208 ft | 14 kts | 229° |
| 2026-05-04 10:33 | 51.14670 | -0.21370 | 205 ft | 12 kts | 137° |
| 2026-05-04 10:33 | 51.14640 | -0.21336 | 205 ft | 2 kts | 160° |
| 2026-05-04 10:33 | 51.14633 | -0.21333 | 204 ft | 0 kts | 163° |
| 2026-05-04 10:34 | 51.14626 | -0.21329 | 203 ft | 4 kts | 163° |
| 2026-05-04 10:34 | 51.14582 | -0.21308 | 208 ft | 6 kts | 162° |
| 2026-05-04 10:35 | 51.14556 | -0.21291 | 208 ft | 2 kts | 153° |
| 2026-05-04 10:35 | 51.14539 | -0.21262 | 208 ft | 8 kts | 129° |
| 2026-05-04 10:35 | 51.14515 | -0.21157 | 205 ft | 12 kts | 81° |
| 2026-05-04 10:35 | 51.14518 | -0.21138 | 205 ft | 0 kts | 76° |
| 2026-05-04 10:36 | 51.14523 | -0.21106 | 205 ft | 15 kts | 76° |
| 2026-05-04 10:37 | 51.14605 | -0.20526 | 209 ft | 89 kts | 77° |
| 2026-05-04 10:37 | 51.14778 | -0.19254 | 205 ft | 144 kts | 77° |
| 2026-05-04 10:37 | 51.15009 | -0.17507 | 497 ft | 165 kts | 78° |
| 2026-05-04 10:37 | 51.15234 | -0.15736 | 1276 ft | 163 kts | 78° |
| 2026-05-04 10:39 | 51.20213 | -0.06001 | 3002 ft | 259 kts | 347° |
| 2026-05-04 10:39 | 51.21823 | -0.07246 | 3005 ft | 261 kts | 318° |
| 2026-05-04 10:39 | 51.22695 | -0.09719 | 3286 ft | 260 kts | 279° |
| 2026-05-04 10:40 | 51.22577 | -0.12625 | 4027 ft | 265 kts | 259° |
| 2026-05-04 10:40 | 51.22185 | -0.15522 | 4836 ft | 271 kts | 256° |
| 2026-05-04 10:40 | 51.21725 | -0.18465 | 5415 ft | 276 kts | 255° |
| 2026-05-04 10:40 | 51.21255 | -0.21410 | 6485 ft | 274 kts | 255° |
| 2026-05-04 10:41 | 51.20829 | -0.24375 | 7406 ft | 275 kts | 257° |
| 2026-05-04 10:41 | 51.20430 | -0.27391 | 8145 ft | 278 kts | 257° |
| 2026-05-04 10:41 | 51.20052 | -0.30426 | 9090 ft | 280 kts | 258° |
| 2026-05-04 10:41 | 51.19685 | -0.33487 | 9987 ft | 282 kts | 258° |
| 2026-05-04 10:42 | 51.19315 | -0.36619 | 10507 ft | 298 kts | 258° |
| 2026-05-04 10:42 | 51.18915 | -0.39991 | 10745 ft | 321 kts | 258° |
| 2026-05-04 10:42 | 51.18482 | -0.43618 | 10946 ft | 342 kts | 258° |
| 2026-05-04 10:42 | 51.18035 | -0.47363 | 11012 ft | 347 kts | 258° |
| 2026-05-04 10:43 | 51.17571 | -0.51183 | 11576 ft | 353 kts | 256° |
| 2026-05-04 10:44 | 51.11229 | -0.77201 | 14025 ft | 363 kts | 247° |
| 2026-05-04 10:45 | 51.10291 | -0.80926 | 14022 ft | 363 kts | 247° |
| 2026-05-04 10:45 | 51.09350 | -0.84654 | 14046 ft | 364 kts | 247° |
| 2026-05-04 10:45 | 51.08594 | -0.88528 | 14627 ft | 370 kts | 262° |
| 2026-05-04 10:45 | 51.08754 | -0.92616 | 15277 ft | 375 kts | 279° |
| 2026-05-04 10:46 | 51.09409 | -0.96608 | 15895 ft | 381 kts | 290° |
| 2026-05-04 10:46 | 51.10671 | -1.00336 | 16481 ft | 387 kts | 300° |
| 2026-05-04 10:46 | 51.12100 | -1.03988 | 17103 ft | 390 kts | 300° |
| 2026-05-04 10:46 | 51.13550 | -1.07662 | 17704 ft | 394 kts | 300° |
| 2026-05-04 10:47 | 51.15019 | -1.11369 | 17968 ft | 396 kts | 300° |
| 2026-05-04 10:47 | 51.16514 | -1.15132 | 18028 ft | 409 kts | 300° |
| 2026-05-04 10:47 | 51.18063 | -1.19041 | 18023 ft | 423 kts | 300° |
| 2026-05-04 10:47 | 51.19640 | -1.23020 | 18019 ft | 426 kts | 300° |
| 2026-05-04 10:49 | 51.30168 | -1.49795 | 18022 ft | 429 kts | 300° |
| 2026-05-04 10:49 | 51.32259 | -1.55153 | 18031 ft | 429 kts | 300° |
| 2026-05-04 10:50 | 51.33840 | -1.59209 | 18026 ft | 429 kts | 300° |
| 2026-05-04 10:51 | 51.44132 | -1.85764 | 16088 ft | 400 kts | 300° |
| 2026-05-04 10:52 | 51.45566 | -1.89482 | 15947 ft | 385 kts | 300° |
| 2026-05-04 10:52 | 51.46945 | -1.93065 | 15824 ft | 372 kts | 300° |
| 2026-05-04 10:52 | 51.48281 | -1.96541 | 15692 ft | 359 kts | 300° |
| 2026-05-04 10:54 | 51.49981 | -2.20088 | 13843 ft | 309 kts | 248° |
| 2026-05-04 10:54 | 51.49252 | -2.23326 | 13485 ft | 307 kts | 248° |
| 2026-05-04 10:56 | 51.45877 | -2.46386 | 9702 ft | 328 kts | 275° |
| 2026-05-04 10:56 | 51.46140 | -2.49976 | 9035 ft | 320 kts | 275° |
| 2026-05-04 10:56 | 51.46399 | -2.53450 | 8388 ft | 314 kts | 275° |
| 2026-05-04 10:57 | 51.46649 | -2.56937 | 7742 ft | 308 kts | 276° |
| 2026-05-04 10:57 | 51.46875 | -2.60295 | 7120 ft | 304 kts | 275° |
| 2026-05-04 10:57 | 51.47094 | -2.63652 | 6500 ft | 300 kts | 276° |
| 2026-05-04 10:57 | 51.47294 | -2.66960 | 5852 ft | 296 kts | 275° |
| 2026-05-04 10:58 | 51.47491 | -2.70219 | 5256 ft | 291 kts | 274° |
| 2026-05-04 10:58 | 51.47299 | -2.73352 | 4738 ft | 280 kts | 249° |
| 2026-05-04 10:58 | 51.46477 | -2.76120 | 4240 ft | 272 kts | 245° |
| 2026-05-04 10:58 | 51.45915 | -2.78995 | 4009 ft | 271 kts | 254° |
| 2026-05-04 10:59 | 51.45456 | -2.81910 | 4012 ft | 270 kts | 256° |
| 2026-05-04 10:59 | 51.44998 | -2.84857 | 3902 ft | 273 kts | 255° |
| 2026-05-04 10:59 | 51.44545 | -2.87766 | 3645 ft | 269 kts | 255° |
| 2026-05-04 10:59 | 51.44088 | -2.90683 | 3384 ft | 269 kts | 255° |
| 2026-05-04 11:00 | 51.43633 | -2.93587 | 3124 ft | 269 kts | 255° |
| 2026-05-04 11:01 | 51.37153 | -3.07333 | 2512 ft | 253 kts | 141° |
| 2026-05-04 11:02 | 51.36167 | -3.05091 | 2502 ft | 248 kts | 104° |
| 2026-05-04 11:02 | 51.36254 | -3.02393 | 2510 ft | 248 kts | 66° |
| 2026-05-04 11:05 | 51.38303 | -2.71086 | 611 ft | 95 kts | 86° |
| 2026-05-04 11:06 | 51.38328 | -2.70523 | 624 ft | 16 kts | 63° |
| 2026-05-04 11:06 | 51.38413 | -2.70506 | 622 ft | 1 kts | 342° |
| 2026-05-04 11:06 | 51.38417 | -2.70508 | 620 ft | 3 kts | 342° |
| 2026-05-04 11:06 | 51.38463 | -2.70542 | 618 ft | 12 kts | 317° |
| 2026-05-04 11:08 | 51.38557 | -2.71018 | 613 ft | 0 kts | 357° |